sensor_id;sensor_type;location;lat;lon;timestamp;P1;durP1;ratioP1;P2;durP2;ratioP2
21337;SDS011;10827;50.878;4.382;2022-07-23T00:01:29;21.03;;;15.13;;
21337;SDS011;10827;50.878;4.382;2022-07-23T00:03:55;25.05;;;15.68;;
21337;SDS011;10827;50.878;4.382;2022-07-23T00:06:21;25.13;;;16.67;;
21337;SDS011;10827;50.878;4.382;2022-07-23T00:08:48;25.40;;;15.57;;
21337;SDS011;10827;50.878;4.382;2022-07-23T00:11:13;26.37;;;16.37;;
21337;SDS011;10827;50.878;4.382;2022-07-23T00:13:39;26.33;;;16.73;;
21337;SDS011;10827;50.878;4.382;2022-07-23T00:16:05;26.47;;;16.43;;
21337;SDS011;10827;50.878;4.382;2022-07-23T00:18:31;25.23;;;16.90;;
21337;SDS011;10827;50.878;4.382;2022-07-23T00:20:57;25.60;;;17.80;;
21337;SDS011;10827;50.878;4.382;2022-07-23T00:23:23;26.50;;;16.87;;
21337;SDS011;10827;50.878;4.382;2022-07-23T00:25:50;27.87;;;17.63;;
21337;SDS011;10827;50.878;4.382;2022-07-23T00:28:17;26.47;;;18.40;;
21337;SDS011;10827;50.878;4.382;2022-07-23T00:30:43;31.47;;;18.20;;
21337;SDS011;10827;50.878;4.382;2022-07-23T00:33:11;30.17;;;17.77;;
21337;SDS011;10827;50.878;4.382;2022-07-23T00:35:38;32.97;;;19.10;;
21337;SDS011;10827;50.878;4.382;2022-07-23T00:38:08;27.20;;;17.63;;
21337;SDS011;10827;50.878;4.382;2022-07-23T00:40:35;31.83;;;18.60;;
21337;SDS011;10827;50.878;4.382;2022-07-23T00:43:02;23.87;;;16.93;;
21337;SDS011;10827;50.878;4.382;2022-07-23T00:45:28;29.37;;;18.17;;
21337;SDS011;10827;50.878;4.382;2022-07-23T00:47:54;26.03;;;17.17;;
21337;SDS011;10827;50.878;4.382;2022-07-23T00:50:20;27.93;;;17.70;;
21337;SDS011;10827;50.878;4.382;2022-07-23T00:52:46;29.93;;;18.30;;
21337;SDS011;10827;50.878;4.382;2022-07-23T00:55:12;28.37;;;18.00;;
21337;SDS011;10827;50.878;4.382;2022-07-23T00:57:39;27.20;;;17.97;;
21337;SDS011;10827;50.878;4.382;2022-07-23T01:00:07;29.07;;;18.13;;
21337;SDS011;10827;50.878;4.382;2022-07-23T01:02:35;31.20;;;18.27;;
21337;SDS011;10827;50.878;4.382;2022-07-23T01:05:01;25.20;;;17.97;;
21337;SDS011;10827;50.878;4.382;2022-07-23T01:07:28;29.07;;;18.07;;
21337;SDS011;10827;50.878;4.382;2022-07-23T01:09:54;29.83;;;17.77;;
21337;SDS011;10827;50.878;4.382;2022-07-23T01:12:20;26.73;;;17.63;;
21337;SDS011;10827;50.878;4.382;2022-07-23T01:14:53;33.90;;;18.50;;
21337;SDS011;10827;50.878;4.382;2022-07-23T01:17:22;27.43;;;18.03;;
21337;SDS011;10827;50.878;4.382;2022-07-23T01:19:48;26.60;;;18.30;;
21337;SDS011;10827;50.878;4.382;2022-07-23T01:22:14;28.40;;;18.90;;
21337;SDS011;10827;50.878;4.382;2022-07-23T01:24:43;28.83;;;18.83;;
21337;SDS011;10827;50.878;4.382;2022-07-23T01:27:09;29.90;;;18.60;;
21337;SDS011;10827;50.878;4.382;2022-07-23T01:29:35;26.80;;;18.90;;
21337;SDS011;10827;50.878;4.382;2022-07-23T01:32:01;27.13;;;17.47;;
21337;SDS011;10827;50.878;4.382;2022-07-23T01:34:26;29.00;;;17.90;;
21337;SDS011;10827;50.878;4.382;2022-07-23T01:36:52;29.47;;;18.53;;
21337;SDS011;10827;50.878;4.382;2022-07-23T01:39:18;30.27;;;18.43;;
21337;SDS011;10827;50.878;4.382;2022-07-23T01:41:44;29.37;;;19.20;;
21337;SDS011;10827;50.878;4.382;2022-07-23T01:44:09;30.30;;;18.10;;
21337;SDS011;10827;50.878;4.382;2022-07-23T01:46:37;30.00;;;18.10;;
21337;SDS011;10827;50.878;4.382;2022-07-23T01:49:03;32.63;;;18.47;;
21337;SDS011;10827;50.878;4.382;2022-07-23T01:51:29;28.83;;;18.70;;
21337;SDS011;10827;50.878;4.382;2022-07-23T01:53:55;29.67;;;18.50;;
21337;SDS011;10827;50.878;4.382;2022-07-23T01:56:20;25.93;;;18.70;;
21337;SDS011;10827;50.878;4.382;2022-07-23T01:58:47;27.97;;;17.83;;
21337;SDS011;10827;50.878;4.382;2022-07-23T02:01:13;24.80;;;17.43;;
21337;SDS011;10827;50.878;4.382;2022-07-23T02:03:39;28.77;;;18.30;;
21337;SDS011;10827;50.878;4.382;2022-07-23T02:06:05;34.47;;;18.63;;
21337;SDS011;10827;50.878;4.382;2022-07-23T02:08:31;30.67;;;18.83;;
21337;SDS011;10827;50.878;4.382;2022-07-23T02:10:56;28.80;;;18.50;;
21337;SDS011;10827;50.878;4.382;2022-07-23T02:13:22;33.40;;;19.47;;
21337;SDS011;10827;50.878;4.382;2022-07-23T02:15:48;31.73;;;19.20;;
21337;SDS011;10827;50.878;4.382;2022-07-23T02:18:14;32.60;;;19.87;;
21337;SDS011;10827;50.878;4.382;2022-07-23T02:20:40;37.57;;;19.90;;
21337;SDS011;10827;50.878;4.382;2022-07-23T02:23:06;30.73;;;20.70;;
21337;SDS011;10827;50.878;4.382;2022-07-23T02:25:33;33.77;;;20.83;;
21337;SDS011;10827;50.878;4.382;2022-07-23T02:27:59;31.23;;;20.53;;
21337;SDS011;10827;50.878;4.382;2022-07-23T02:30:25;29.33;;;20.20;;
21337;SDS011;10827;50.878;4.382;2022-07-23T02:32:51;34.97;;;19.30;;
21337;SDS011;10827;50.878;4.382;2022-07-23T02:35:16;33.13;;;20.30;;
21337;SDS011;10827;50.878;4.382;2022-07-23T02:37:42;31.03;;;19.47;;
21337;SDS011;10827;50.878;4.382;2022-07-23T02:40:08;27.77;;;19.10;;
21337;SDS011;10827;50.878;4.382;2022-07-23T02:42:34;32.27;;;19.73;;
21337;SDS011;10827;50.878;4.382;2022-07-23T02:45:00;29.43;;;20.10;;
21337;SDS011;10827;50.878;4.382;2022-07-23T02:47:26;31.33;;;19.27;;
21337;SDS011;10827;50.878;4.382;2022-07-23T02:49:52;28.13;;;19.50;;
21337;SDS011;10827;50.878;4.382;2022-07-23T02:52:17;34.10;;;19.00;;
21337;SDS011;10827;50.878;4.382;2022-07-23T02:54:43;31.07;;;18.97;;
21337;SDS011;10827;50.878;4.382;2022-07-23T02:57:09;32.93;;;20.23;;
21337;SDS011;10827;50.878;4.382;2022-07-23T02:59:34;30.40;;;19.00;;
21337;SDS011;10827;50.878;4.382;2022-07-23T03:02:01;30.30;;;19.33;;
21337;SDS011;10827;50.878;4.382;2022-07-23T03:04:27;31.50;;;19.10;;
21337;SDS011;10827;50.878;4.382;2022-07-23T03:06:53;33.37;;;20.07;;
21337;SDS011;10827;50.878;4.382;2022-07-23T03:09:18;34.27;;;20.67;;
21337;SDS011;10827;50.878;4.382;2022-07-23T03:11:44;30.87;;;20.00;;
21337;SDS011;10827;50.878;4.382;2022-07-23T03:14:10;28.63;;;19.40;;
21337;SDS011;10827;50.878;4.382;2022-07-23T03:16:38;30.47;;;20.10;;
21337;SDS011;10827;50.878;4.382;2022-07-23T03:19:04;31.97;;;20.07;;
21337;SDS011;10827;50.878;4.382;2022-07-23T03:21:30;31.63;;;20.13;;
21337;SDS011;10827;50.878;4.382;2022-07-23T03:23:56;30.63;;;19.57;;
21337;SDS011;10827;50.878;4.382;2022-07-23T03:26:22;34.07;;;19.90;;
21337;SDS011;10827;50.878;4.382;2022-07-23T03:28:50;32.60;;;20.57;;
21337;SDS011;10827;50.878;4.382;2022-07-23T03:31:16;31.73;;;20.43;;
21337;SDS011;10827;50.878;4.382;2022-07-23T03:33:42;33.23;;;20.20;;
21337;SDS011;10827;50.878;4.382;2022-07-23T03:36:08;35.23;;;19.93;;
21337;SDS011;10827;50.878;4.382;2022-07-23T03:38:35;31.23;;;20.17;;
21337;SDS011;10827;50.878;4.382;2022-07-23T03:41:00;32.33;;;19.17;;
21337;SDS011;10827;50.878;4.382;2022-07-23T03:43:26;28.57;;;18.17;;
21337;SDS011;10827;50.878;4.382;2022-07-23T03:45:52;33.03;;;19.90;;
21337;SDS011;10827;50.878;4.382;2022-07-23T03:48:18;30.23;;;19.90;;
21337;SDS011;10827;50.878;4.382;2022-07-23T03:50:44;32.20;;;20.10;;
21337;SDS011;10827;50.878;4.382;2022-07-23T03:53:10;27.87;;;19.13;;
21337;SDS011;10827;50.878;4.382;2022-07-23T03:55:36;32.33;;;19.40;;
21337;SDS011;10827;50.878;4.382;2022-07-23T03:58:01;33.63;;;21.20;;
21337;SDS011;10827;50.878;4.382;2022-07-23T04:00:27;31.63;;;20.10;;
21337;SDS011;10827;50.878;4.382;2022-07-23T04:02:53;33.77;;;18.83;;
21337;SDS011;10827;50.878;4.382;2022-07-23T04:05:18;29.77;;;19.97;;
21337;SDS011;10827;50.878;4.382;2022-07-23T04:07:44;30.20;;;19.40;;
21337;SDS011;10827;50.878;4.382;2022-07-23T04:10:10;28.47;;;19.30;;
21337;SDS011;10827;50.878;4.382;2022-07-23T04:12:36;31.23;;;20.30;;
21337;SDS011;10827;50.878;4.382;2022-07-23T04:15:01;30.63;;;19.40;;
21337;SDS011;10827;50.878;4.382;2022-07-23T04:17:27;32.23;;;19.23;;
21337;SDS011;10827;50.878;4.382;2022-07-23T04:19:53;28.70;;;18.93;;
21337;SDS011;10827;50.878;4.382;2022-07-23T04:22:19;28.03;;;19.23;;
21337;SDS011;10827;50.878;4.382;2022-07-23T04:24:45;28.67;;;19.40;;
21337;SDS011;10827;50.878;4.382;2022-07-23T04:27:11;35.70;;;19.67;;
21337;SDS011;10827;50.878;4.382;2022-07-23T04:29:36;28.77;;;19.23;;
21337;SDS011;10827;50.878;4.382;2022-07-23T04:32:02;27.27;;;19.03;;
21337;SDS011;10827;50.878;4.382;2022-07-23T04:34:28;29.00;;;19.30;;
21337;SDS011;10827;50.878;4.382;2022-07-23T04:36:55;28.60;;;18.70;;
21337;SDS011;10827;50.878;4.382;2022-07-23T04:39:20;28.87;;;18.50;;
21337;SDS011;10827;50.878;4.382;2022-07-23T04:41:46;28.67;;;18.13;;
21337;SDS011;10827;50.878;4.382;2022-07-23T04:44:12;27.90;;;18.83;;
21337;SDS011;10827;50.878;4.382;2022-07-23T04:46:38;30.53;;;18.27;;
21337;SDS011;10827;50.878;4.382;2022-07-23T04:49:03;28.37;;;18.13;;
21337;SDS011;10827;50.878;4.382;2022-07-23T04:51:29;28.10;;;18.87;;
21337;SDS011;10827;50.878;4.382;2022-07-23T04:53:55;27.30;;;17.93;;
21337;SDS011;10827;50.878;4.382;2022-07-23T04:56:21;31.57;;;18.53;;
21337;SDS011;10827;50.878;4.382;2022-07-23T04:58:47;28.90;;;17.57;;
21337;SDS011;10827;50.878;4.382;2022-07-23T05:01:13;27.63;;;18.40;;
21337;SDS011;10827;50.878;4.382;2022-07-23T05:03:39;26.67;;;18.30;;
21337;SDS011;10827;50.878;4.382;2022-07-23T05:06:05;29.73;;;18.03;;
21337;SDS011;10827;50.878;4.382;2022-07-23T05:08:31;25.83;;;17.23;;
21337;SDS011;10827;50.878;4.382;2022-07-23T05:10:56;26.77;;;18.17;;
21337;SDS011;10827;50.878;4.382;2022-07-23T05:13:22;26.33;;;17.23;;
21337;SDS011;10827;50.878;4.382;2022-07-23T05:15:48;27.67;;;16.20;;
21337;SDS011;10827;50.878;4.382;2022-07-23T05:18:14;27.73;;;16.47;;
21337;SDS011;10827;50.878;4.382;2022-07-23T05:20:39;23.27;;;16.70;;
21337;SDS011;10827;50.878;4.382;2022-07-23T05:23:06;29.03;;;17.83;;
21337;SDS011;10827;50.878;4.382;2022-07-23T05:25:32;28.10;;;17.13;;
21337;SDS011;10827;50.878;4.382;2022-07-23T05:27:58;28.63;;;17.50;;
21337;SDS011;10827;50.878;4.382;2022-07-23T05:30:24;25.77;;;18.20;;
21337;SDS011;10827;50.878;4.382;2022-07-23T05:32:50;31.47;;;17.77;;
21337;SDS011;10827;50.878;4.382;2022-07-23T05:35:16;24.77;;;16.63;;
21337;SDS011;10827;50.878;4.382;2022-07-23T05:37:42;28.67;;;16.73;;
21337;SDS011;10827;50.878;4.382;2022-07-23T05:40:08;23.87;;;16.20;;
21337;SDS011;10827;50.878;4.382;2022-07-23T05:42:35;24.90;;;15.37;;
21337;SDS011;10827;50.878;4.382;2022-07-23T05:45:02;23.40;;;15.17;;
21337;SDS011;10827;50.878;4.382;2022-07-23T05:47:28;29.10;;;16.83;;
21337;SDS011;10827;50.878;4.382;2022-07-23T05:50:03;23.57;;;16.30;;
21337;SDS011;10827;50.878;4.382;2022-07-23T05:52:29;26.00;;;16.63;;
21337;SDS011;10827;50.878;4.382;2022-07-23T05:54:55;25.03;;;16.23;;
21337;SDS011;10827;50.878;4.382;2022-07-23T05:57:20;22.25;;;16.02;;
21337;SDS011;10827;50.878;4.382;2022-07-23T05:59:46;22.93;;;15.43;;
21337;SDS011;10827;50.878;4.382;2022-07-23T06:02:12;27.80;;;16.83;;
21337;SDS011;10827;50.878;4.382;2022-07-23T06:04:37;24.63;;;16.23;;
21337;SDS011;10827;50.878;4.382;2022-07-23T06:07:03;23.23;;;15.45;;
21337;SDS011;10827;50.878;4.382;2022-07-23T06:09:29;26.17;;;16.50;;
21337;SDS011;10827;50.878;4.382;2022-07-23T06:11:54;24.73;;;16.80;;
21337;SDS011;10827;50.878;4.382;2022-07-23T06:14:21;24.43;;;16.97;;
21337;SDS011;10827;50.878;4.382;2022-07-23T06:16:46;25.20;;;16.40;;
21337;SDS011;10827;50.878;4.382;2022-07-23T06:19:12;25.77;;;16.67;;
21337;SDS011;10827;50.878;4.382;2022-07-23T06:21:38;25.27;;;15.93;;
21337;SDS011;10827;50.878;4.382;2022-07-23T06:24:03;26.20;;;16.27;;
21337;SDS011;10827;50.878;4.382;2022-07-23T06:26:29;28.57;;;16.47;;
21337;SDS011;10827;50.878;4.382;2022-07-23T06:28:55;20.40;;;15.97;;
21337;SDS011;10827;50.878;4.382;2022-07-23T06:31:21;24.20;;;16.50;;
21337;SDS011;10827;50.878;4.382;2022-07-23T06:33:46;23.60;;;15.73;;
21337;SDS011;10827;50.878;4.382;2022-07-23T06:36:12;22.92;;;15.77;;
21337;SDS011;10827;50.878;4.382;2022-07-23T06:38:38;25.90;;;13.87;;
21337;SDS011;10827;50.878;4.382;2022-07-23T06:41:03;20.57;;;14.37;;
21337;SDS011;10827;50.878;4.382;2022-07-23T06:43:30;28.70;;;15.07;;
21337;SDS011;10827;50.878;4.382;2022-07-23T06:45:56;23.15;;;14.48;;
21337;SDS011;10827;50.878;4.382;2022-07-23T06:48:22;26.23;;;14.50;;
21337;SDS011;10827;50.878;4.382;2022-07-23T06:50:48;19.77;;;14.73;;
21337;SDS011;10827;50.878;4.382;2022-07-23T06:53:13;23.15;;;15.55;;
21337;SDS011;10827;50.878;4.382;2022-07-23T06:55:40;20.05;;;14.60;;
21337;SDS011;10827;50.878;4.382;2022-07-23T06:58:05;24.15;;;14.45;;
21337;SDS011;10827;50.878;4.382;2022-07-23T07:00:31;23.23;;;15.55;;
21337;SDS011;10827;50.878;4.382;2022-07-23T07:02:57;23.58;;;15.98;;
21337;SDS011;10827;50.878;4.382;2022-07-23T07:05:23;22.10;;;15.50;;
21337;SDS011;10827;50.878;4.382;2022-07-23T07:07:52;19.73;;;12.35;;
21337;SDS011;10827;50.878;4.382;2022-07-23T07:10:21;24.38;;;14.07;;
21337;SDS011;10827;50.878;4.382;2022-07-23T07:12:47;23.83;;;15.65;;
21337;SDS011;10827;50.878;4.382;2022-07-23T07:15:13;24.45;;;15.68;;
21337;SDS011;10827;50.878;4.382;2022-07-23T07:17:42;23.48;;;14.98;;
21337;SDS011;10827;50.878;4.382;2022-07-23T07:20:09;23.48;;;14.40;;
21337;SDS011;10827;50.878;4.382;2022-07-23T07:22:35;21.35;;;15.27;;
21337;SDS011;10827;50.878;4.382;2022-07-23T07:25:01;24.83;;;15.95;;
21337;SDS011;10827;50.878;4.382;2022-07-23T07:27:28;26.25;;;14.70;;
21337;SDS011;10827;50.878;4.382;2022-07-23T07:29:53;25.33;;;15.02;;
21337;SDS011;10827;50.878;4.382;2022-07-23T07:32:19;24.77;;;15.57;;
21337;SDS011;10827;50.878;4.382;2022-07-23T07:34:45;23.45;;;15.40;;
21337;SDS011;10827;50.878;4.382;2022-07-23T07:37:11;21.35;;;14.75;;
21337;SDS011;10827;50.878;4.382;2022-07-23T07:39:37;22.98;;;14.80;;
21337;SDS011;10827;50.878;4.382;2022-07-23T07:42:02;20.02;;;15.07;;
21337;SDS011;10827;50.878;4.382;2022-07-23T07:44:28;23.77;;;15.02;;
21337;SDS011;10827;50.878;4.382;2022-07-23T07:46:54;20.63;;;14.45;;
21337;SDS011;10827;50.878;4.382;2022-07-23T07:49:20;22.50;;;14.00;;
21337;SDS011;10827;50.878;4.382;2022-07-23T07:51:46;20.13;;;15.02;;
21337;SDS011;10827;50.878;4.382;2022-07-23T07:54:12;22.85;;;14.00;;
21337;SDS011;10827;50.878;4.382;2022-07-23T07:56:38;20.58;;;14.15;;
21337;SDS011;10827;50.878;4.382;2022-07-23T07:59:07;21.13;;;14.90;;
21337;SDS011;10827;50.878;4.382;2022-07-23T08:01:33;25.63;;;15.00;;
21337;SDS011;10827;50.878;4.382;2022-07-23T08:03:59;22.15;;;14.23;;
21337;SDS011;10827;50.878;4.382;2022-07-23T08:06:24;20.42;;;14.13;;
21337;SDS011;10827;50.878;4.382;2022-07-23T08:08:50;24.17;;;15.63;;
21337;SDS011;10827;50.878;4.382;2022-07-23T08:11:16;16.60;;;12.20;;
21337;SDS011;10827;50.878;4.382;2022-07-23T08:13:43;21.42;;;12.05;;
21337;SDS011;10827;50.878;4.382;2022-07-23T08:16:09;20.92;;;11.27;;
21337;SDS011;10827;50.878;4.382;2022-07-23T08:18:36;18.95;;;12.15;;
21337;SDS011;10827;50.878;4.382;2022-07-23T08:21:01;15.07;;;11.10;;
21337;SDS011;10827;50.878;4.382;2022-07-23T08:23:30;19.33;;;11.18;;
21337;SDS011;10827;50.878;4.382;2022-07-23T08:25:56;17.30;;;10.95;;
21337;SDS011;10827;50.878;4.382;2022-07-23T08:28:22;17.42;;;12.13;;
21337;SDS011;10827;50.878;4.382;2022-07-23T08:30:48;18.27;;;11.90;;
21337;SDS011;10827;50.878;4.382;2022-07-23T08:33:15;16.23;;;11.73;;
21337;SDS011;10827;50.878;4.382;2022-07-23T08:35:42;18.27;;;11.32;;
21337;SDS011;10827;50.878;4.382;2022-07-23T08:38:14;17.40;;;9.63;;
21337;SDS011;10827;50.878;4.382;2022-07-23T08:40:43;20.35;;;11.02;;
21337;SDS011;10827;50.878;4.382;2022-07-23T08:43:19;22.90;;;11.98;;
21337;SDS011;10827;50.878;4.382;2022-07-23T08:45:48;17.77;;;11.23;;
21337;SDS011;10827;50.878;4.382;2022-07-23T08:48:23;18.90;;;11.07;;
21337;SDS011;10827;50.878;4.382;2022-07-23T08:50:52;21.08;;;12.57;;
21337;SDS011;10827;50.878;4.382;2022-07-23T08:53:22;16.33;;;11.30;;
21337;SDS011;10827;50.878;4.382;2022-07-23T08:55:53;20.13;;;11.77;;
21337;SDS011;10827;50.878;4.382;2022-07-23T08:58:21;16.05;;;11.15;;
21337;SDS011;10827;50.878;4.382;2022-07-23T09:00:48;19.98;;;11.73;;
21337;SDS011;10827;50.878;4.382;2022-07-23T09:05:52;14.57;;;10.60;;
21337;SDS011;10827;50.878;4.382;2022-07-23T09:08:22;17.10;;;11.35;;
21337;SDS011;10827;50.878;4.382;2022-07-23T09:10:59;16.42;;;11.20;;
21337;SDS011;10827;50.878;4.382;2022-07-23T09:13:30;13.90;;;10.05;;
21337;SDS011;10827;50.878;4.382;2022-07-23T09:16:12;14.40;;;10.35;;
21337;SDS011;10827;50.878;4.382;2022-07-23T09:24:07;20.13;;;10.80;;
21337;SDS011;10827;50.878;4.382;2022-07-23T09:26:34;14.98;;;9.50;;
21337;SDS011;10827;50.878;4.382;2022-07-23T09:29:11;13.65;;;8.88;;
21337;SDS011;10827;50.878;4.382;2022-07-23T09:34:19;18.45;;;8.82;;
21337;SDS011;10827;50.878;4.382;2022-07-23T09:36:45;15.15;;;9.65;;
21337;SDS011;10827;50.878;4.382;2022-07-23T09:39:13;14.80;;;9.45;;
21337;SDS011;10827;50.878;4.382;2022-07-23T09:41:44;16.20;;;10.10;;
21337;SDS011;10827;50.878;4.382;2022-07-23T09:44:16;13.98;;;9.00;;
21337;SDS011;10827;50.878;4.382;2022-07-23T09:46:44;13.63;;;9.48;;
21337;SDS011;10827;50.878;4.382;2022-07-23T09:49:12;13.27;;;8.57;;
21337;SDS011;10827;50.878;4.382;2022-07-23T09:51:51;12.73;;;8.70;;
21337;SDS011;10827;50.878;4.382;2022-07-23T09:56:49;15.18;;;10.02;;
21337;SDS011;10827;50.878;4.382;2022-07-23T09:59:16;15.98;;;9.52;;
21337;SDS011;10827;50.878;4.382;2022-07-23T10:01:44;13.10;;;8.80;;
21337;SDS011;10827;50.878;4.382;2022-07-23T10:04:13;20.25;;;7.93;;
21337;SDS011;10827;50.878;4.382;2022-07-23T10:06:39;14.38;;;7.93;;
21337;SDS011;10827;50.878;4.382;2022-07-23T10:09:08;13.30;;;7.68;;
21337;SDS011;10827;50.878;4.382;2022-07-23T10:11:37;11.23;;;7.53;;
21337;SDS011;10827;50.878;4.382;2022-07-23T10:14:04;12.13;;;7.85;;
21337;SDS011;10827;50.878;4.382;2022-07-23T10:16:31;10.65;;;7.03;;
21337;SDS011;10827;50.878;4.382;2022-07-23T10:18:57;24.35;;;7.10;;
21337;SDS011;10827;50.878;4.382;2022-07-23T10:26:54;10.43;;;6.97;;
21337;SDS011;10827;50.878;4.382;2022-07-23T10:29:51;14.07;;;7.35;;
21337;SDS011;10827;50.878;4.382;2022-07-23T10:37:44;12.35;;;7.25;;
21337;SDS011;10827;50.878;4.382;2022-07-23T10:42:44;69.78;;;10.25;;
21337;SDS011;10827;50.878;4.382;2022-07-23T10:50:43;11.93;;;6.22;;
21337;SDS011;10827;50.878;4.382;2022-07-23T10:53:29;11.60;;;6.55;;
21337;SDS011;10827;50.878;4.382;2022-07-23T10:56:15;10.70;;;5.60;;
21337;SDS011;10827;50.878;4.382;2022-07-23T10:58:47;9.32;;;5.43;;
21337;SDS011;10827;50.878;4.382;2022-07-23T11:04:03;7.35;;;5.20;;
21337;SDS011;10827;50.878;4.382;2022-07-23T11:09:29;11.50;;;6.68;;
21337;SDS011;10827;50.878;4.382;2022-07-23T11:17:57;20.52;;;6.43;;
21337;SDS011;10827;50.878;4.382;2022-07-23T11:20:25;12.90;;;6.50;;
21337;SDS011;10827;50.878;4.382;2022-07-23T11:22:52;19.58;;;7.03;;
21337;SDS011;10827;50.878;4.382;2022-07-23T11:27:47;9.80;;;6.82;;
21337;SDS011;10827;50.878;4.382;2022-07-23T11:33:37;8.93;;;6.32;;
21337;SDS011;10827;50.878;4.382;2022-07-23T11:35:39;12.55;;;7.50;;
21337;SDS011;10827;50.878;4.382;2022-07-23T11:38:18;9.63;;;5.82;;
21337;SDS011;10827;50.878;4.382;2022-07-23T11:40:50;9.57;;;6.30;;
21337;SDS011;10827;50.878;4.382;2022-07-23T11:43:18;9.90;;;6.80;;
21337;SDS011;10827;50.878;4.382;2022-07-23T11:45:47;8.38;;;6.07;;
21337;SDS011;10827;50.878;4.382;2022-07-23T11:48:25;8.65;;;5.72;;
21337;SDS011;10827;50.878;4.382;2022-07-23T11:50:52;9.05;;;6.20;;
21337;SDS011;10827;50.878;4.382;2022-07-23T11:53:23;13.95;;;7.30;;
21337;SDS011;10827;50.878;4.382;2022-07-23T11:55:50;12.95;;;7.68;;
21337;SDS011;10827;50.878;4.382;2022-07-23T11:58:17;10.23;;;6.88;;
21337;SDS011;10827;50.878;4.382;2022-07-23T12:00:43;14.68;;;7.35;;
21337;SDS011;10827;50.878;4.382;2022-07-23T12:03:08;10.77;;;6.97;;
21337;SDS011;10827;50.878;4.382;2022-07-23T12:05:35;10.60;;;7.18;;
21337;SDS011;10827;50.878;4.382;2022-07-23T12:08:06;10.65;;;6.22;;
21337;SDS011;10827;50.878;4.382;2022-07-23T12:10:37;11.68;;;7.00;;
21337;SDS011;10827;50.878;4.382;2022-07-23T12:13:09;11.05;;;7.88;;
21337;SDS011;10827;50.878;4.382;2022-07-23T12:15:41;20.65;;;9.00;;
21337;SDS011;10827;50.878;4.382;2022-07-23T12:18:09;14.77;;;7.88;;
21337;SDS011;10827;50.878;4.382;2022-07-23T12:20:39;9.73;;;7.70;;
21337;SDS011;10827;50.878;4.382;2022-07-23T12:23:09;10.93;;;7.60;;
21337;SDS011;10827;50.878;4.382;2022-07-23T12:25:44;8.68;;;6.72;;
21337;SDS011;10827;50.878;4.382;2022-07-23T12:33:13;10.02;;;6.20;;
21337;SDS011;10827;50.878;4.382;2022-07-23T12:35:55;8.50;;;6.35;;
21337;SDS011;10827;50.878;4.382;2022-07-23T12:38:23;10.90;;;6.25;;
21337;SDS011;10827;50.878;4.382;2022-07-23T12:40:51;9.25;;;5.57;;
21337;SDS011;10827;50.878;4.382;2022-07-23T12:48:30;12.10;;;6.85;;
21337;SDS011;10827;50.878;4.382;2022-07-23T12:51:00;12.20;;;8.07;;
21337;SDS011;10827;50.878;4.382;2022-07-23T12:53:37;12.73;;;7.88;;
21337;SDS011;10827;50.878;4.382;2022-07-23T12:56:11;10.25;;;7.40;;
21337;SDS011;10827;50.878;4.382;2022-07-23T12:58:40;11.60;;;6.78;;
21337;SDS011;10827;50.878;4.382;2022-07-23T13:01:06;10.82;;;7.53;;
21337;SDS011;10827;50.878;4.382;2022-07-23T13:03:33;11.55;;;6.40;;
21337;SDS011;10827;50.878;4.382;2022-07-23T13:05:59;9.55;;;7.20;;
21337;SDS011;10827;50.878;4.382;2022-07-23T13:08:27;9.77;;;6.30;;
21337;SDS011;10827;50.878;4.382;2022-07-23T13:10:54;9.73;;;6.03;;
21337;SDS011;10827;50.878;4.382;2022-07-23T13:13:26;9.82;;;6.20;;
21337;SDS011;10827;50.878;4.382;2022-07-23T13:15:54;11.82;;;7.10;;
21337;SDS011;10827;50.878;4.382;2022-07-23T13:18:20;9.57;;;6.40;;
21337;SDS011;10827;50.878;4.382;2022-07-23T13:20:47;7.65;;;6.25;;
21337;SDS011;10827;50.878;4.382;2022-07-23T13:23:13;6.75;;;5.85;;
21337;SDS011;10827;50.878;4.382;2022-07-23T13:25:40;8.00;;;5.88;;
21337;SDS011;10827;50.878;4.382;2022-07-23T13:28:06;11.57;;;5.63;;
21337;SDS011;10827;50.878;4.382;2022-07-23T13:30:32;9.90;;;6.15;;
21337;SDS011;10827;50.878;4.382;2022-07-23T13:32:59;10.35;;;5.95;;
21337;SDS011;10827;50.878;4.382;2022-07-23T13:35:27;11.00;;;5.60;;
21337;SDS011;10827;50.878;4.382;2022-07-23T13:37:53;8.70;;;5.55;;
21337;SDS011;10827;50.878;4.382;2022-07-23T13:40:19;6.93;;;5.82;;
21337;SDS011;10827;50.878;4.382;2022-07-23T13:42:45;7.07;;;5.45;;
21337;SDS011;10827;50.878;4.382;2022-07-23T13:45:12;7.03;;;5.55;;
21337;SDS011;10827;50.878;4.382;2022-07-23T13:47:38;8.13;;;6.05;;
21337;SDS011;10827;50.878;4.382;2022-07-23T13:50:04;9.45;;;5.47;;
21337;SDS011;10827;50.878;4.382;2022-07-23T13:52:31;9.02;;;5.55;;
21337;SDS011;10827;50.878;4.382;2022-07-23T13:54:59;7.57;;;5.35;;
21337;SDS011;10827;50.878;4.382;2022-07-23T13:57:26;7.30;;;6.47;;
21337;SDS011;10827;50.878;4.382;2022-07-23T13:59:53;5.80;;;5.15;;
21337;SDS011;10827;50.878;4.382;2022-07-23T14:02:19;8.48;;;5.90;;
21337;SDS011;10827;50.878;4.382;2022-07-23T14:04:44;8.60;;;5.85;;
21337;SDS011;10827;50.878;4.382;2022-07-23T14:07:10;7.07;;;5.00;;
21337;SDS011;10827;50.878;4.382;2022-07-23T14:09:36;6.63;;;4.97;;
21337;SDS011;10827;50.878;4.382;2022-07-23T14:12:03;13.13;;;5.03;;
21337;SDS011;10827;50.878;4.382;2022-07-23T14:14:29;8.98;;;5.15;;
21337;SDS011;10827;50.878;4.382;2022-07-23T14:16:55;7.13;;;5.30;;
21337;SDS011;10827;50.878;4.382;2022-07-23T14:19:21;6.20;;;5.47;;
21337;SDS011;10827;50.878;4.382;2022-07-23T14:21:47;7.82;;;5.40;;
21337;SDS011;10827;50.878;4.382;2022-07-23T14:24:15;7.20;;;4.95;;
21337;SDS011;10827;50.878;4.382;2022-07-23T14:26:41;5.85;;;5.25;;
21337;SDS011;10827;50.878;4.382;2022-07-23T14:29:07;5.90;;;5.30;;
21337;SDS011;10827;50.878;4.382;2022-07-23T14:31:33;6.22;;;5.22;;
21337;SDS011;10827;50.878;4.382;2022-07-23T14:33:59;8.70;;;5.72;;
21337;SDS011;10827;50.878;4.382;2022-07-23T14:36:25;5.70;;;5.05;;
21337;SDS011;10827;50.878;4.382;2022-07-23T14:38:51;7.28;;;5.80;;
21337;SDS011;10827;50.878;4.382;2022-07-23T14:41:17;7.13;;;5.40;;
21337;SDS011;10827;50.878;4.382;2022-07-23T14:43:43;9.85;;;5.97;;
21337;SDS011;10827;50.878;4.382;2022-07-23T14:46:09;8.15;;;6.43;;
21337;SDS011;10827;50.878;4.382;2022-07-23T14:48:37;7.88;;;6.10;;
21337;SDS011;10827;50.878;4.382;2022-07-23T14:51:03;6.97;;;5.25;;
21337;SDS011;10827;50.878;4.382;2022-07-23T14:53:29;6.72;;;5.35;;
21337;SDS011;10827;50.878;4.382;2022-07-23T14:55:55;9.75;;;5.72;;
21337;SDS011;10827;50.878;4.382;2022-07-23T14:58:24;6.80;;;5.38;;
21337;SDS011;10827;50.878;4.382;2022-07-23T15:00:50;7.68;;;5.72;;
21337;SDS011;10827;50.878;4.382;2022-07-23T15:03:16;8.45;;;5.68;;
21337;SDS011;10827;50.878;4.382;2022-07-23T15:05:42;6.18;;;5.55;;
21337;SDS011;10827;50.878;4.382;2022-07-23T15:08:08;6.32;;;5.57;;
21337;SDS011;10827;50.878;4.382;2022-07-23T15:10:34;11.57;;;6.50;;
21337;SDS011;10827;50.878;4.382;2022-07-23T15:13:00;8.90;;;5.90;;
21337;SDS011;10827;50.878;4.382;2022-07-23T15:15:26;9.90;;;5.80;;
21337;SDS011;10827;50.878;4.382;2022-07-23T15:17:56;6.55;;;5.88;;
21337;SDS011;10827;50.878;4.382;2022-07-23T15:20:25;6.40;;;5.60;;
21337;SDS011;10827;50.878;4.382;2022-07-23T15:22:51;6.45;;;5.57;;
21337;SDS011;10827;50.878;4.382;2022-07-23T15:25:17;8.85;;;6.15;;
21337;SDS011;10827;50.878;4.382;2022-07-23T15:27:43;7.60;;;6.50;;